createdAt,value
2022-10-28T00:03:37.940Z,97222.00
2022-10-28T00:07:41.045Z,97209.00
2022-10-28T00:11:44.077Z,97205.00
2022-10-28T00:15:48.519Z,97204.00
2022-10-28T00:19:51.564Z,97202.00
2022-10-28T00:23:54.924Z,97212.00
2022-10-28T00:27:57.946Z,97210.00
2022-10-28T00:32:02.675Z,97216.00
2022-10-28T00:36:10.060Z,97217.00
2022-10-28T00:40:13.670Z,97201.00
2022-10-28T00:44:49.137Z,97206.00
2022-10-28T00:48:59.761Z,97211.00
2022-10-28T00:53:29.582Z,97206.00
2022-10-28T00:57:35.583Z,97200.00
2022-10-28T01:01:38.912Z,97210.00
2022-10-28T01:05:45.381Z,97205.00
2022-10-28T01:09:48.651Z,97201.00
2022-10-28T01:14:05.784Z,97204.00
2022-10-28T01:18:20.777Z,97206.00
2022-10-28T01:22:28.393Z,97207.00
2022-10-28T01:26:49.211Z,97194.00
2022-10-28T01:31:20.611Z,97195.00
2022-10-28T01:35:28.557Z,97200.00
2022-10-28T01:39:35.617Z,97202.00
2022-10-28T01:43:45.706Z,97207.00
2022-10-28T01:47:54.713Z,97194.00
2022-10-28T01:52:02.973Z,97200.00
2022-10-28T01:56:11.170Z,97202.00
2022-10-28T02:00:15.147Z,97195.00
2022-10-28T02:04:19.726Z,97195.00
2022-10-28T02:08:45.137Z,97196.00
2022-10-28T02:12:53.763Z,97192.00
2022-10-28T02:17:01.886Z,97190.00
2022-10-28T02:21:15.052Z,97187.00
2022-10-28T02:25:44.853Z,97188.00
2022-10-28T02:29:52.101Z,97181.00
2022-10-28T02:33:59.846Z,97174.00
2022-10-28T02:38:10.942Z,97174.00
2022-10-28T02:42:39.542Z,97171.00
2022-10-28T02:46:46.639Z,97178.00
2022-10-28T02:50:54.730Z,97170.00
2022-10-28T02:55:01.555Z,97161.00
2022-10-28T02:59:35.069Z,97171.00
2022-10-28T03:03:38.160Z,97169.00
2022-10-28T03:08:14.993Z,97176.00
2022-10-28T03:12:19.422Z,97179.00
2022-10-28T03:16:22.445Z,97181.00
2022-10-28T03:20:25.484Z,97174.00
2022-10-28T03:25:02.422Z,97183.00
2022-10-28T03:29:06.968Z,97179.00
2022-10-28T03:33:40.703Z,97177.00
2022-10-28T03:38:17.772Z,97172.00
2022-10-28T03:42:55.015Z,97168.00
2022-10-28T03:47:33.377Z,97166.00
2022-10-28T03:52:07.078Z,97168.00
2022-10-28T03:56:15.463Z,97166.00
2022-10-28T04:00:18.639Z,97169.00
2022-10-28T04:04:57.045Z,97166.00
2022-10-28T04:09:00.468Z,97164.00
2022-10-28T04:13:37.049Z,97166.00
2022-10-28T04:18:13.893Z,97173.00
2022-10-28T04:22:56.131Z,97173.00
2022-10-28T04:27:00.282Z,97178.00
2022-10-28T04:31:36.965Z,97168.00
2022-10-28T04:36:13.859Z,97157.00
2022-10-28T04:40:18.437Z,97156.00
2022-10-28T04:44:52.026Z,97166.00
2022-10-28T04:49:28.882Z,97169.00
2022-10-28T04:54:05.957Z,97176.00
2022-10-28T04:58:42.601Z,97175.00
2022-10-28T05:03:21.022Z,97180.00
2022-10-28T05:07:24.017Z,97183.00
2022-10-28T05:12:00.769Z,97178.00
2022-10-28T05:16:37.644Z,97180.00
2022-10-28T05:21:14.217Z,97177.00
2022-10-28T05:25:52.819Z,97178.00
2022-10-28T05:30:26.267Z,97175.00
2022-10-28T05:35:03.317Z,97169.00
2022-10-28T05:39:39.938Z,97172.00
2022-10-28T05:44:16.309Z,97163.00
2022-10-28T05:48:54.387Z,97168.00
2022-10-28T05:53:28.340Z,97165.00
2022-10-28T05:58:05.139Z,97168.00
2022-10-28T06:02:41.997Z,97185.00
2022-10-28T06:07:20.386Z,97177.00
2022-10-28T06:11:52.402Z,97188.00
2022-10-28T06:16:29.318Z,97187.00
2022-10-28T06:21:06.240Z,97192.00
2022-10-28T06:25:44.866Z,97189.00
2022-10-28T06:30:18.823Z,97197.00
2022-10-28T06:34:55.553Z,97196.00
2022-10-28T06:39:32.319Z,97214.00
2022-10-28T06:44:10.619Z,97220.00
2022-10-28T06:48:45.979Z,97214.00
2022-10-28T06:53:22.955Z,97233.00
2022-10-28T06:57:59.616Z,97239.00
2022-10-28T07:02:42.738Z,97234.00
2022-10-28T07:07:12.861Z,97246.00
2022-10-28T07:11:53.565Z,97258.00
2022-10-28T07:16:05.337Z,97252.00
2022-10-28T07:20:43.588Z,97245.00
2022-10-28T07:25:17.328Z,97244.00
2022-10-28T07:29:54.824Z,97242.00
2022-10-28T07:34:31.513Z,97244.00
2022-10-28T07:39:10.953Z,97265.00
2022-10-28T07:43:47.761Z,97274.00
2022-10-28T07:48:03.781Z,97280.00
2022-10-28T07:52:37.994Z,97285.00
2022-10-28T07:57:16.407Z,97282.00
2022-10-28T08:01:50.400Z,97286.00
2022-10-28T08:06:27.085Z,97287.00
2022-10-28T08:10:30.111Z,97287.00
2022-10-28T08:15:15.031Z,97278.00
2022-10-28T08:19:42.702Z,97274.00
2022-10-28T08:24:19.557Z,97273.00
2022-10-28T08:28:56.505Z,97266.00
2022-10-28T08:33:33.488Z,97286.00
2022-10-28T08:38:12.059Z,97271.00
2022-10-28T08:42:47.553Z,97273.00
2022-10-28T08:47:21.055Z,97253.00
2022-10-28T08:52:00.920Z,97245.00
2022-10-28T08:56:37.002Z,97246.00
2022-10-28T09:01:19.166Z,97240.00
2022-10-28T09:05:50.088Z,97243.00
2022-10-28T09:09:54.572Z,97243.00
2022-10-28T09:14:38.641Z,97248.00
2022-10-28T09:19:05.733Z,97241.00
2022-10-28T09:23:44.949Z,97237.00
2022-10-28T09:28:19.728Z,97231.00
2022-10-28T09:32:56.370Z,97232.00
2022-10-28T09:37:36.811Z,97237.00
2022-10-28T09:42:13.960Z,97240.00
2022-10-28T09:46:53.725Z,97238.00
2022-10-28T09:51:12.122Z,97244.00
2022-10-28T09:55:44.584Z,97249.00
2022-10-28T10:00:18.868Z,97248.00
2022-10-28T10:04:53.389Z,97239.00
2022-10-28T10:09:32.078Z,97248.00
2022-10-28T10:14:05.348Z,97253.00
2022-10-28T10:18:48.644Z,97254.00
2022-10-28T10:23:28.667Z,97249.00
2022-10-28T10:28:03.107Z,97249.00
2022-10-28T10:32:39.769Z,97243.00
2022-10-28T10:37:22.857Z,97242.00
2022-10-28T10:41:36.169Z,97234.00
2022-10-28T10:46:15.037Z,97233.00
2022-10-28T10:50:47.700Z,97239.00
2022-10-28T10:55:26.524Z,97225.00
2022-10-28T10:59:57.861Z,97228.00
2022-10-28T12:15:23.095Z,97183.00
2022-10-28T12:19:54.929Z,97176.00
2022-10-28T12:24:29.905Z,97176.00
2022-10-28T12:28:38.983Z,97172.00
2022-10-28T12:33:09.713Z,97170.00
2022-10-28T12:37:19.726Z,97170.00
2022-10-28T12:41:51.189Z,97157.00
2022-10-28T12:45:56.617Z,97154.00
2022-10-28T12:50:33.625Z,97146.00
2022-10-28T12:54:53.567Z,97147.00
2022-10-28T12:59:05.611Z,97141.00
2022-10-28T13:03:33.308Z,97146.00
2022-10-28T13:07:57.701Z,97142.00
2022-10-28T13:12:55.682Z,97142.00
2022-10-28T13:17:16.163Z,97132.00
2022-10-28T13:21:43.264Z,97129.00
2022-10-28T13:26:39.077Z,97137.00
2022-10-28T13:31:16.765Z,97125.00
2022-10-28T13:40:37.706Z,97131.00
2022-10-28T13:45:29.225Z,97135.00
2022-10-28T13:50:15.125Z,97139.00
2022-10-28T13:54:32.122Z,97137.00
2022-10-28T13:59:02.822Z,97121.00
2022-10-28T14:03:40.162Z,97124.00
2022-10-28T14:07:54.723Z,97121.00
2022-10-28T14:12:24.257Z,97128.00
2022-10-28T14:16:30.867Z,97124.00
2022-10-28T14:21:02.090Z,97122.00
2022-10-28T14:25:40.302Z,97119.00
2022-10-28T14:29:49.868Z,97115.00
2022-10-28T14:34:44.807Z,97122.00
2022-10-28T14:39:18.735Z,97123.00
2022-10-28T14:43:42.413Z,97121.00
2022-10-28T14:48:27.893Z,97122.00
2022-10-28T14:52:36.406Z,97122.00
2022-10-28T14:56:40.949Z,97113.00
2022-10-28T15:00:50.811Z,97129.00
2022-10-28T15:05:02.928Z,97125.00
2022-10-28T15:09:17.706Z,97128.00
2022-10-28T15:13:22.304Z,97130.00
2022-10-28T15:17:27.155Z,97128.00
2022-10-28T15:21:30.180Z,97116.00
2022-10-28T15:26:09.098Z,97110.00
2022-10-28T15:30:16.612Z,97102.00
2022-10-28T15:34:22.186Z,97111.00
2022-10-28T15:39:06.533Z,97105.00
2022-10-28T15:43:20.351Z,97102.00
2022-10-28T15:47:45.812Z,97111.00
2022-10-28T15:52:23.966Z,97098.00
2022-10-28T15:56:58.287Z,97094.00
2022-10-28T16:01:40.787Z,97099.00
2022-10-28T16:06:29.885Z,97093.00
2022-10-28T16:10:36.463Z,97095.00
2022-10-28T16:14:40.803Z,97095.00
2022-10-28T16:19:25.485Z,97091.00
2022-10-28T16:23:56.392Z,97091.00
2022-10-28T16:28:30.546Z,97102.00
2022-10-28T16:32:38.844Z,97122.00
2022-10-28T16:36:43.260Z,97126.00
2022-10-28T16:40:51.325Z,97133.00
2022-10-28T16:44:55.228Z,97139.00
2022-10-28T16:49:32.848Z,97138.00
2022-10-28T16:54:12.818Z,97142.00
2022-10-28T16:58:16.113Z,97157.00
2022-10-28T17:02:54.394Z,97155.00
2022-10-28T17:06:57.403Z,97149.00
2022-10-28T17:11:02.048Z,97157.00
2022-10-28T17:15:38.726Z,97162.00
2022-10-28T17:19:42.238Z,97170.00
2022-10-28T17:24:20.401Z,97166.00
2022-10-28T17:28:55.812Z,97165.00
2022-10-28T17:33:32.633Z,97144.00
2022-10-28T17:38:09.564Z,97148.00
2022-10-28T17:42:13.129Z,97139.00
2022-10-28T17:46:18.075Z,97129.00
2022-10-28T17:50:21.111Z,97113.00
2022-10-28T17:54:57.814Z,97113.00
2022-10-28T17:59:01.606Z,97127.00
2022-10-28T18:03:39.804Z,97137.00
2022-10-28T18:07:43.040Z,97126.00
2022-10-28T18:11:46.114Z,97139.00
2022-10-28T18:15:49.150Z,97143.00
2022-10-28T18:20:27.494Z,97131.00
2022-10-28T18:24:30.539Z,97136.00
2022-10-28T18:29:05.321Z,97124.00
2022-10-28T18:33:08.352Z,97127.00
2022-10-28T18:37:46.563Z,97122.00
2022-10-28T18:41:51.431Z,97116.00
2022-10-28T18:46:28.874Z,97113.00
2022-10-28T18:51:04.023Z,97108.00
2022-10-28T18:55:39.819Z,97109.00
2022-10-28T19:00:12.403Z,97100.00
2022-10-28T19:04:17.935Z,97102.00
2022-10-28T19:08:21.001Z,97106.00
2022-10-28T19:12:25.499Z,97103.00
2022-10-28T19:16:29.725Z,97105.00
2022-10-28T19:21:08.435Z,97093.00
2022-10-28T19:25:11.567Z,97098.00
2022-10-28T19:29:16.114Z,97095.00
2022-10-28T19:33:50.138Z,97104.00
2022-10-28T19:38:27.101Z,97107.00
2022-10-28T19:43:03.976Z,97103.00
2022-10-28T19:47:42.403Z,97104.00
2022-10-28T19:52:16.566Z,97111.00
2022-10-28T19:56:20.306Z,97125.00
2022-10-28T20:00:23.617Z,97115.00
2022-10-28T20:05:01.913Z,97122.00
2022-10-28T20:09:05.182Z,97120.00
2022-10-28T20:13:42.098Z,97124.00
2022-10-28T20:18:19.014Z,97137.00
2022-10-28T20:22:57.261Z,97133.00
2022-10-28T20:27:00.694Z,97135.00
2022-10-28T20:31:06.448Z,97139.00
2022-10-28T20:35:10.113Z,97136.00
2022-10-28T20:39:18.023Z,97140.00
2022-10-28T20:43:50.571Z,97135.00
2022-10-28T20:48:24.548Z,97137.00
2022-10-28T20:53:01.707Z,97138.00
2022-10-28T20:57:06.267Z,97133.00
2022-10-28T21:01:41.040Z,97129.00
2022-10-28T21:05:44.701Z,97134.00
2022-10-28T21:09:47.778Z,97136.00
2022-10-28T21:14:25.986Z,97123.00
2022-10-28T21:19:00.361Z,97113.00
2022-10-28T21:23:03.750Z,97119.00
2022-10-28T21:27:36.080Z,97122.00
2022-10-28T21:31:40.528Z,97119.00
2022-10-28T21:35:43.572Z,97114.00
2022-10-28T21:39:47.187Z,97124.00
2022-10-28T21:43:51.959Z,97122.00
2022-10-28T21:47:57.319Z,97114.00
2022-10-28T21:52:31.346Z,97114.00
2022-10-28T21:56:34.370Z,97109.00
2022-10-28T22:00:37.429Z,97110.00
2022-10-28T22:04:41.839Z,97114.00
2022-10-28T22:08:44.991Z,97110.00
2022-10-28T22:12:49.103Z,97108.00
2022-10-28T22:17:23.020Z,97113.00
2022-10-28T22:21:29.304Z,97113.00
2022-10-28T22:26:03.204Z,97119.00
2022-10-28T22:30:06.817Z,97120.00
2022-10-28T22:34:09.849Z,97122.00
2022-10-28T22:38:14.310Z,97118.00
2022-10-28T22:42:17.377Z,97127.00
2022-10-28T22:46:54.188Z,97119.00
2022-10-28T22:50:57.546Z,97123.00
2022-10-28T22:55:31.269Z,97119.00
2022-10-28T22:59:35.712Z,97114.00
2022-10-28T23:03:41.682Z,97101.00
2022-10-28T23:08:15.088Z,97099.00
2022-10-28T23:12:18.136Z,97103.00
2022-10-28T23:16:23.946Z,97118.00
2022-10-28T23:20:27.142Z,97112.00
2022-10-28T23:25:03.716Z,97115.00
2022-10-28T23:29:06.869Z,97115.00
2022-10-28T23:33:11.270Z,97121.00
2022-10-28T23:37:44.992Z,97123.00
2022-10-28T23:41:48.025Z,97123.00
2022-10-28T23:45:51.035Z,97118.00
2022-10-28T23:49:55.450Z,97113.00
2022-10-28T23:53:58.644Z,97109.00
2022-10-28T23:58:01.757Z,97115.00
